sensor_id;sensor_type;location;lat;lon;timestamp;pressure;altitude;pressure_sealevel;temperature;humidity
54600;BME280;40500;51.084;16.958;2023-04-07T00:01:30;100552.41;;;4.31;100.00
54600;BME280;40500;51.084;16.958;2023-04-07T00:03:58;100548.22;;;4.29;100.00
54600;BME280;40500;51.084;16.958;2023-04-07T00:06:28;100544.70;;;4.24;100.00
54600;BME280;40500;51.084;16.958;2023-04-07T00:08:55;100552.95;;;4.19;100.00
54600;BME280;40500;51.084;16.958;2023-04-07T00:11:23;100547.20;;;4.16;100.00
54600;BME280;40500;51.084;16.958;2023-04-07T00:13:50;100549.91;;;4.12;100.00
54600;BME280;40500;51.084;16.958;2023-04-07T00:16:19;100550.94;;;4.10;100.00
54600;BME280;40500;51.084;16.958;2023-04-07T00:18:46;100545.85;;;4.06;100.00
54600;BME280;40500;51.084;16.958;2023-04-07T00:21:14;100547.70;;;4.01;100.00
54600;BME280;40500;51.084;16.958;2023-04-07T00:23:42;100543.31;;;3.97;100.00
54600;BME280;40500;51.084;16.958;2023-04-07T00:26:09;100544.99;;;3.92;100.00
54600;BME280;40500;51.084;16.958;2023-04-07T00:28:37;100540.06;;;3.87;100.00
54600;BME280;40500;51.084;16.958;2023-04-07T00:31:05;100545.23;;;3.85;100.00
54600;BME280;40500;51.084;16.958;2023-04-07T00:33:33;100539.66;;;3.83;100.00
54600;BME280;40500;51.084;16.958;2023-04-07T00:36:00;100536.50;;;3.81;100.00
54600;BME280;40500;51.084;16.958;2023-04-07T00:38:28;100535.77;;;3.77;100.00
54600;BME280;40500;51.084;16.958;2023-04-07T00:40:57;100533.98;;;3.73;100.00
54600;BME280;40500;51.084;16.958;2023-04-07T00:43:26;100535.51;;;3.70;100.00
54600;BME280;40500;51.084;16.958;2023-04-07T00:45:54;100532.02;;;3.69;100.00
54600;BME280;40500;51.084;16.958;2023-04-07T00:48:22;100532.38;;;3.69;100.00
54600;BME280;40500;51.084;16.958;2023-04-07T00:50:50;100528.34;;;3.67;100.00
54600;BME280;40500;51.084;16.958;2023-04-07T00:53:19;100523.30;;;3.64;100.00
54600;BME280;40500;51.084;16.958;2023-04-07T00:55:47;100522.05;;;3.62;100.00
54600;BME280;40500;51.084;16.958;2023-04-07T00:58:15;100513.13;;;3.55;100.00
54600;BME280;40500;51.084;16.958;2023-04-07T01:00:47;100513.73;;;3.49;100.00
54600;BME280;40500;51.084;16.958;2023-04-07T01:03:19;100511.58;;;3.45;100.00
54600;BME280;40500;51.084;16.958;2023-04-07T01:05:54;100512.39;;;3.41;100.00
54600;BME280;40500;51.084;16.958;2023-04-07T01:08:31;100510.42;;;3.37;100.00
54600;BME280;40500;51.084;16.958;2023-04-07T01:11:12;100506.25;;;3.35;100.00
54600;BME280;40500;51.084;16.958;2023-04-07T01:13:47;100500.52;;;3.34;100.00
54600;BME280;40500;51.084;16.958;2023-04-07T01:16:31;100498.10;;;3.34;100.00
54600;BME280;40500;51.084;16.958;2023-04-07T01:19:22;100495.99;;;3.32;100.00
54600;BME280;40500;51.084;16.958;2023-04-07T01:21:58;100496.64;;;3.29;100.00
54600;BME280;40500;51.084;16.958;2023-04-07T01:24:44;100496.43;;;3.27;100.00
54600;BME280;40500;51.084;16.958;2023-04-07T01:27:24;100499.35;;;3.25;100.00
54600;BME280;40500;51.084;16.958;2023-04-07T01:30:01;100495.86;;;3.24;100.00
54600;BME280;40500;51.084;16.958;2023-04-07T01:32:30;100493.59;;;3.23;100.00
54600;BME280;40500;51.084;16.958;2023-04-07T01:34:59;100489.95;;;3.22;100.00
54600;BME280;40500;51.084;16.958;2023-04-07T01:37:29;100485.96;;;3.21;100.00
54600;BME280;40500;51.084;16.958;2023-04-07T01:39:57;100488.89;;;3.20;100.00
54600;BME280;40500;51.084;16.958;2023-04-07T01:42:25;100487.16;;;3.20;100.00
54600;BME280;40500;51.084;16.958;2023-04-07T01:44:54;100490.95;;;3.19;100.00
54600;BME280;40500;51.084;16.958;2023-04-07T01:47:22;100492.35;;;3.20;100.00
54600;BME280;40500;51.084;16.958;2023-04-07T01:49:54;100490.05;;;3.17;100.00
54600;BME280;40500;51.084;16.958;2023-04-07T01:52:24;100492.05;;;3.12;100.00
54600;BME280;40500;51.084;16.958;2023-04-07T01:54:53;100488.39;;;3.10;100.00
54600;BME280;40500;51.084;16.958;2023-04-07T01:57:21;100485.42;;;3.09;100.00
54600;BME280;40500;51.084;16.958;2023-04-07T01:59:52;100486.40;;;3.05;100.00
54600;BME280;40500;51.084;16.958;2023-04-07T02:02:23;100479.13;;;3.05;100.00
54600;BME280;40500;51.084;16.958;2023-04-07T02:04:55;100477.55;;;3.03;100.00
54600;BME280;40500;51.084;16.958;2023-04-07T02:07:30;100477.66;;;2.99;100.00
54600;BME280;40500;51.084;16.958;2023-04-07T02:10:00;100472.93;;;2.95;100.00
54600;BME280;40500;51.084;16.958;2023-04-07T02:12:29;100476.37;;;2.94;100.00
54600;BME280;40500;51.084;16.958;2023-04-07T02:15:09;100474.05;;;2.91;100.00
54600;BME280;40500;51.084;16.958;2023-04-07T02:17:39;100476.42;;;2.87;100.00
54600;BME280;40500;51.084;16.958;2023-04-07T02:20:10;100472.73;;;2.84;100.00
54600;BME280;40500;51.084;16.958;2023-04-07T02:22:38;100472.17;;;2.82;100.00
54600;BME280;40500;51.084;16.958;2023-04-07T02:25:23;100473.54;;;2.80;100.00
54600;BME280;40500;51.084;16.958;2023-04-07T02:27:54;100470.94;;;2.79;100.00
54600;BME280;40500;51.084;16.958;2023-04-07T02:30:23;100467.60;;;2.76;100.00
54600;BME280;40500;51.084;16.958;2023-04-07T02:32:51;100462.91;;;2.75;100.00
54600;BME280;40500;51.084;16.958;2023-04-07T02:35:20;100463.91;;;2.73;100.00
54600;BME280;40500;51.084;16.958;2023-04-07T02:37:48;100462.63;;;2.69;100.00
54600;BME280;40500;51.084;16.958;2023-04-07T02:40:16;100463.11;;;2.67;100.00
54600;BME280;40500;51.084;16.958;2023-04-07T02:42:43;100458.05;;;2.63;100.00
54600;BME280;40500;51.084;16.958;2023-04-07T02:45:11;100458.38;;;2.62;100.00
54600;BME280;40500;51.084;16.958;2023-04-07T02:47:39;100464.73;;;2.60;100.00
54600;BME280;40500;51.084;16.958;2023-04-07T02:50:08;100460.73;;;2.59;100.00
54600;BME280;40500;51.084;16.958;2023-04-07T02:52:36;100470.09;;;2.60;100.00
54600;BME280;40500;51.084;16.958;2023-04-07T02:55:10;100457.64;;;2.60;100.00
54600;BME280;40500;51.084;16.958;2023-04-07T02:57:38;100459.73;;;2.61;100.00
54600;BME280;40500;51.084;16.958;2023-04-07T03:00:11;100454.52;;;2.59;100.00
54600;BME280;40500;51.084;16.958;2023-04-07T03:02:52;100453.61;;;2.57;100.00
54600;BME280;40500;51.084;16.958;2023-04-07T03:05:20;100449.09;;;2.55;100.00
54600;BME280;40500;51.084;16.958;2023-04-07T03:07:48;100453.88;;;2.53;100.00
54600;BME280;40500;51.084;16.958;2023-04-07T03:10:16;100451.95;;;2.51;100.00
54600;BME280;40500;51.084;16.958;2023-04-07T03:12:44;100452.23;;;2.48;100.00
54600;BME280;40500;51.084;16.958;2023-04-07T03:15:11;100453.77;;;2.46;100.00
54600;BME280;40500;51.084;16.958;2023-04-07T03:17:41;100452.36;;;2.45;100.00
54600;BME280;40500;51.084;16.958;2023-04-07T03:20:09;100442.02;;;2.45;100.00
54600;BME280;40500;51.084;16.958;2023-04-07T03:22:37;100444.95;;;2.45;100.00
54600;BME280;40500;51.084;16.958;2023-04-07T03:25:09;100446.32;;;2.45;100.00
54600;BME280;40500;51.084;16.958;2023-04-07T03:27:37;100448.20;;;2.45;100.00
54600;BME280;40500;51.084;16.958;2023-04-07T03:30:08;100452.18;;;2.45;100.00
54600;BME280;40500;51.084;16.958;2023-04-07T03:32:36;100449.94;;;2.45;100.00
54600;BME280;40500;51.084;16.958;2023-04-07T03:35:05;100458.95;;;2.46;100.00
54600;BME280;40500;51.084;16.958;2023-04-07T03:37:32;100464.98;;;2.45;100.00
54600;BME280;40500;51.084;16.958;2023-04-07T03:40:01;100461.67;;;2.44;100.00
54600;BME280;40500;51.084;16.958;2023-04-07T03:42:33;100460.62;;;2.43;100.00
54600;BME280;40500;51.084;16.958;2023-04-07T03:45:04;100457.84;;;2.42;100.00
54600;BME280;40500;51.084;16.958;2023-04-07T03:47:33;100457.97;;;2.40;100.00
54600;BME280;40500;51.084;16.958;2023-04-07T03:50:02;100454.81;;;2.37;100.00
54600;BME280;40500;51.084;16.958;2023-04-07T03:52:32;100449.59;;;2.34;100.00
54600;BME280;40500;51.084;16.958;2023-04-07T03:55:07;100450.96;;;2.33;100.00
54600;BME280;40500;51.084;16.958;2023-04-07T03:57:35;100450.39;;;2.31;100.00
54600;BME280;40500;51.084;16.958;2023-04-07T04:00:05;100451.96;;;2.32;100.00
54600;BME280;40500;51.084;16.958;2023-04-07T04:02:43;100456.80;;;2.32;100.00
54600;BME280;40500;51.084;16.958;2023-04-07T04:05:14;100459.41;;;2.32;100.00
54600;BME280;40500;51.084;16.958;2023-04-07T04:07:43;100455.94;;;2.32;100.00
54600;BME280;40500;51.084;16.958;2023-04-07T04:10:10;100455.04;;;2.30;100.00
54600;BME280;40500;51.084;16.958;2023-04-07T04:12:42;100453.52;;;2.31;100.00
54600;BME280;40500;51.084;16.958;2023-04-07T04:15:11;100452.08;;;2.29;100.00
54600;BME280;40500;51.084;16.958;2023-04-07T04:17:39;100449.98;;;2.28;100.00
54600;BME280;40500;51.084;16.958;2023-04-07T04:20:09;100450.64;;;2.27;100.00
54600;BME280;40500;51.084;16.958;2023-04-07T04:22:41;100452.55;;;2.27;100.00
54600;BME280;40500;51.084;16.958;2023-04-07T04:25:09;100454.81;;;2.28;100.00
54600;BME280;40500;51.084;16.958;2023-04-07T04:27:37;100454.99;;;2.28;100.00
54600;BME280;40500;51.084;16.958;2023-04-07T04:30:11;100454.48;;;2.28;100.00
54600;BME280;40500;51.084;16.958;2023-04-07T04:32:44;100454.31;;;2.28;100.00
54600;BME280;40500;51.084;16.958;2023-04-07T04:35:12;100458.28;;;2.28;100.00
54600;BME280;40500;51.084;16.958;2023-04-07T04:37:47;100457.05;;;2.27;100.00
54600;BME280;40500;51.084;16.958;2023-04-07T04:40:16;100460.00;;;2.28;100.00
54600;BME280;40500;51.084;16.958;2023-04-07T04:42:45;100454.97;;;2.27;100.00
54600;BME280;40500;51.084;16.958;2023-04-07T04:45:13;100455.30;;;2.27;100.00
54600;BME280;40500;51.084;16.958;2023-04-07T04:47:45;100457.54;;;2.25;100.00
54600;BME280;40500;51.084;16.958;2023-04-07T04:50:13;100455.05;;;2.22;100.00
54600;BME280;40500;51.084;16.958;2023-04-07T04:52:42;100452.98;;;2.21;100.00
54600;BME280;40500;51.084;16.958;2023-04-07T04:55:15;100457.33;;;2.23;100.00
54600;BME280;40500;51.084;16.958;2023-04-07T04:57:43;100458.70;;;2.24;100.00
54600;BME280;40500;51.084;16.958;2023-04-07T05:00:14;100461.64;;;2.23;100.00
54600;BME280;40500;51.084;16.958;2023-04-07T05:02:42;100460.44;;;2.24;100.00
54600;BME280;40500;51.084;16.958;2023-04-07T05:05:11;100461.18;;;2.26;100.00
54600;BME280;40500;51.084;16.958;2023-04-07T05:07:39;100461.16;;;2.25;100.00
54600;BME280;40500;51.084;16.958;2023-04-07T05:10:08;100458.33;;;2.22;100.00
54600;BME280;40500;51.084;16.958;2023-04-07T05:12:37;100455.52;;;2.19;100.00
54600;BME280;40500;51.084;16.958;2023-04-07T05:15:07;100458.97;;;2.19;100.00
54600;BME280;40500;51.084;16.958;2023-04-07T05:17:35;100457.56;;;2.18;100.00
54600;BME280;40500;51.084;16.958;2023-04-07T05:20:07;100463.59;;;2.16;100.00
54600;BME280;40500;51.084;16.958;2023-04-07T05:22:37;100463.02;;;2.14;100.00
54600;BME280;40500;51.084;16.958;2023-04-07T05:25:07;100460.75;;;2.12;100.00
54600;BME280;40500;51.084;16.958;2023-04-07T05:27:35;100464.01;;;2.11;100.00
54600;BME280;40500;51.084;16.958;2023-04-07T05:30:09;100469.55;;;2.12;100.00
54600;BME280;40500;51.084;16.958;2023-04-07T05:32:37;100468.70;;;2.13;100.00
54600;BME280;40500;51.084;16.958;2023-04-07T05:35:10;100469.06;;;2.14;100.00
54600;BME280;40500;51.084;16.958;2023-04-07T05:37:41;100469.08;;;2.15;100.00
54600;BME280;40500;51.084;16.958;2023-04-07T05:40:10;100466.52;;;2.16;100.00
54600;BME280;40500;51.084;16.958;2023-04-07T05:42:38;100462.73;;;2.17;100.00
54600;BME280;40500;51.084;16.958;2023-04-07T05:45:09;100459.11;;;2.17;100.00
54600;BME280;40500;51.084;16.958;2023-04-07T05:47:39;100461.05;;;2.19;100.00
54600;BME280;40500;51.084;16.958;2023-04-07T05:50:09;100465.38;;;2.20;100.00
54600;BME280;40500;51.084;16.958;2023-04-07T05:52:45;100464.85;;;2.19;100.00
54600;BME280;40500;51.084;16.958;2023-04-07T05:55:22;100464.70;;;2.21;100.00
54600;BME280;40500;51.084;16.958;2023-04-07T05:57:50;100466.98;;;2.22;100.00
54600;BME280;40500;51.084;16.958;2023-04-07T06:00:20;100465.56;;;2.20;100.00
54600;BME280;40500;51.084;16.958;2023-04-07T06:02:52;100466.60;;;2.20;100.00
54600;BME280;40500;51.084;16.958;2023-04-07T06:05:20;100469.22;;;2.21;100.00
54600;BME280;40500;51.084;16.958;2023-04-07T06:07:49;100469.61;;;2.24;100.00
54600;BME280;40500;51.084;16.958;2023-04-07T06:10:17;100471.38;;;2.26;100.00
54600;BME280;40500;51.084;16.958;2023-04-07T06:12:45;100474.13;;;2.27;100.00
54600;BME280;40500;51.084;16.958;2023-04-07T06:15:13;100476.39;;;2.26;100.00
54600;BME280;40500;51.084;16.958;2023-04-07T06:17:40;100471.70;;;2.25;100.00
54600;BME280;40500;51.084;16.958;2023-04-07T06:20:10;100472.13;;;2.30;100.00
54600;BME280;40500;51.084;16.958;2023-04-07T06:22:38;100470.89;;;2.37;100.00
54600;BME280;40500;51.084;16.958;2023-04-07T06:25:09;100468.02;;;2.41;100.00
54600;BME280;40500;51.084;16.958;2023-04-07T06:27:36;100466.36;;;2.45;100.00
54600;BME280;40500;51.084;16.958;2023-04-07T06:30:05;100469.89;;;2.49;100.00
54600;BME280;40500;51.084;16.958;2023-04-07T06:32:35;100464.41;;;2.52;100.00
54600;BME280;40500;51.084;16.958;2023-04-07T06:35:07;100471.01;;;2.53;100.00
54600;BME280;40500;51.084;16.958;2023-04-07T06:37:35;100467.23;;;2.55;100.00
54600;BME280;40500;51.084;16.958;2023-04-07T06:40:03;100468.13;;;2.56;100.00
54600;BME280;40500;51.084;16.958;2023-04-07T06:42:31;100472.77;;;2.55;100.00
54600;BME280;40500;51.084;16.958;2023-04-07T06:45:08;100472.26;;;2.55;100.00
54600;BME280;40500;51.084;16.958;2023-04-07T06:47:36;100467.98;;;2.58;100.00
54600;BME280;40500;51.084;16.958;2023-04-07T06:50:06;100466.81;;;2.61;100.00
54600;BME280;40500;51.084;16.958;2023-04-07T06:52:34;100464.95;;;2.63;100.00
54600;BME280;40500;51.084;16.958;2023-04-07T06:55:02;100462.52;;;2.62;100.00
54600;BME280;40500;51.084;16.958;2023-04-07T06:57:30;100462.67;;;2.61;100.00
54600;BME280;40500;51.084;16.958;2023-04-07T06:59:57;100461.27;;;2.59;100.00
54600;BME280;40500;51.084;16.958;2023-04-07T07:02:25;100455.05;;;2.61;100.00
54600;BME280;40500;51.084;16.958;2023-04-07T07:04:53;100452.99;;;2.61;100.00
54600;BME280;40500;51.084;16.958;2023-04-07T07:07:20;100451.30;;;2.63;100.00
54600;BME280;40500;51.084;16.958;2023-04-07T07:09:48;100451.50;;;2.65;100.00
54600;BME280;40500;51.084;16.958;2023-04-07T07:12:15;100448.57;;;2.66;100.00
54600;BME280;40500;51.084;16.958;2023-04-07T07:14:44;100449.30;;;2.68;100.00
54600;BME280;40500;51.084;16.958;2023-04-07T07:17:11;100443.46;;;2.70;100.00
54600;BME280;40500;51.084;16.958;2023-04-07T07:19:39;100445.25;;;2.73;100.00
54600;BME280;40500;51.084;16.958;2023-04-07T07:22:07;100446.23;;;2.80;100.00
54600;BME280;40500;51.084;16.958;2023-04-07T07:24:34;100450.16;;;2.88;100.00
54600;BME280;40500;51.084;16.958;2023-04-07T07:27:02;100452.38;;;2.97;100.00
54600;BME280;40500;51.084;16.958;2023-04-07T07:29:30;100451.62;;;3.04;100.00
54600;BME280;40500;51.084;16.958;2023-04-07T07:31:58;100451.27;;;3.05;100.00
54600;BME280;40500;51.084;16.958;2023-04-07T07:34:25;100453.34;;;3.04;100.00
54600;BME280;40500;51.084;16.958;2023-04-07T07:36:53;100449.91;;;3.05;100.00
54600;BME280;40500;51.084;16.958;2023-04-07T07:39:21;100449.04;;;3.05;100.00
54600;BME280;40500;51.084;16.958;2023-04-07T07:41:48;100457.98;;;3.01;100.00
54600;BME280;40500;51.084;16.958;2023-04-07T07:44:17;100461.58;;;2.99;100.00
54600;BME280;40500;51.084;16.958;2023-04-07T07:46:46;100460.89;;;3.00;100.00
54600;BME280;40500;51.084;16.958;2023-04-07T07:49:13;100470.20;;;2.98;100.00
54600;BME280;40500;51.084;16.958;2023-04-07T07:51:42;100472.27;;;2.98;100.00
54600;BME280;40500;51.084;16.958;2023-04-07T07:54:09;100479.57;;;3.00;100.00
54600;BME280;40500;51.084;16.958;2023-04-07T07:56:37;100478.36;;;3.00;100.00
54600;BME280;40500;51.084;16.958;2023-04-07T07:59:04;100478.20;;;3.00;100.00
54600;BME280;40500;51.084;16.958;2023-04-07T08:01:32;100485.47;;;3.00;100.00
54600;BME280;40500;51.084;16.958;2023-04-07T08:04:00;100481.48;;;3.00;100.00
54600;BME280;40500;51.084;16.958;2023-04-07T08:06:28;100484.62;;;3.02;100.00
54600;BME280;40500;51.084;16.958;2023-04-07T08:08:57;100483.27;;;3.03;100.00
54600;BME280;40500;51.084;16.958;2023-04-07T08:11:25;100482.06;;;3.04;100.00
54600;BME280;40500;51.084;16.958;2023-04-07T08:13:52;100482.42;;;3.05;100.00
54600;BME280;40500;51.084;16.958;2023-04-07T08:16:20;100479.00;;;3.07;100.00
54600;BME280;40500;51.084;16.958;2023-04-07T08:18:48;100482.30;;;3.08;100.00
54600;BME280;40500;51.084;16.958;2023-04-07T08:21:16;100478.48;;;3.07;100.00
54600;BME280;40500;51.084;16.958;2023-04-07T08:23:44;100473.99;;;3.08;100.00
54600;BME280;40500;51.084;16.958;2023-04-07T08:26:12;100477.95;;;3.07;100.00
54600;BME280;40500;51.084;16.958;2023-04-07T08:28:43;100476.08;;;3.08;100.00
54600;BME280;40500;51.084;16.958;2023-04-07T08:31:10;100476.13;;;3.12;100.00
54600;BME280;40500;51.084;16.958;2023-04-07T08:33:38;100474.27;;;3.14;100.00
54600;BME280;40500;51.084;16.958;2023-04-07T08:36:06;100474.61;;;3.14;100.00
54600;BME280;40500;51.084;16.958;2023-04-07T08:38:34;100472.39;;;3.16;100.00
54600;BME280;40500;51.084;16.958;2023-04-07T08:41:05;100473.63;;;3.18;100.00
54600;BME280;40500;51.084;16.958;2023-04-07T08:43:35;100477.48;;;3.20;100.00
54600;BME280;40500;51.084;16.958;2023-04-07T08:46:02;100472.45;;;3.21;100.00
54600;BME280;40500;51.084;16.958;2023-04-07T08:48:31;100474.27;;;3.25;100.00
54600;BME280;40500;51.084;16.958;2023-04-07T08:51:04;100473.95;;;3.28;100.00
54600;BME280;40500;51.084;16.958;2023-04-07T08:53:37;100471.05;;;3.31;100.00
54600;BME280;40500;51.084;16.958;2023-04-07T08:56:08;100466.29;;;3.37;100.00
54600;BME280;40500;51.084;16.958;2023-04-07T08:58:38;100471.55;;;3.41;100.00
54600;BME280;40500;51.084;16.958;2023-04-07T09:01:06;100469.16;;;3.43;100.00
54600;BME280;40500;51.084;16.958;2023-04-07T09:03:34;100469.55;;;3.47;100.00
54600;BME280;40500;51.084;16.958;2023-04-07T09:06:03;100473.77;;;3.50;100.00
54600;BME280;40500;51.084;16.958;2023-04-07T09:08:31;100470.35;;;3.55;100.00
54600;BME280;40500;51.084;16.958;2023-04-07T09:10:59;100466.46;;;3.62;100.00
54600;BME280;40500;51.084;16.958;2023-04-07T09:13:27;100466.73;;;3.69;100.00
54600;BME280;40500;51.084;16.958;2023-04-07T09:15:55;100462.70;;;3.78;100.00
54600;BME280;40500;51.084;16.958;2023-04-07T09:18:27;100458.86;;;3.90;100.00
54600;BME280;40500;51.084;16.958;2023-04-07T09:20:56;100465.38;;;4.00;100.00
54600;BME280;40500;51.084;16.958;2023-04-07T09:23:29;100463.02;;;4.04;100.00
54600;BME280;40500;51.084;16.958;2023-04-07T09:25:57;100462.99;;;4.03;100.00
54600;BME280;40500;51.084;16.958;2023-04-07T09:28:40;100464.77;;;4.06;100.00
54600;BME280;40500;51.084;16.958;2023-04-07T09:31:08;100462.20;;;4.09;100.00
54600;BME280;40500;51.084;16.958;2023-04-07T09:33:36;100462.04;;;4.10;100.00
54600;BME280;40500;51.084;16.958;2023-04-07T09:36:04;100463.13;;;4.15;100.00
54600;BME280;40500;51.084;16.958;2023-04-07T09:38:34;100460.04;;;4.18;100.00
54600;BME280;40500;51.084;16.958;2023-04-07T09:41:09;100458.00;;;4.22;100.00
54600;BME280;40500;51.084;16.958;2023-04-07T09:43:39;100457.85;;;4.23;100.00
54600;BME280;40500;51.084;16.958;2023-04-07T09:46:08;100455.71;;;4.18;100.00
54600;BME280;40500;51.084;16.958;2023-04-07T09:48:37;100457.92;;;4.14;100.00
54600;BME280;40500;51.084;16.958;2023-04-07T09:51:07;100457.75;;;4.15;100.00
54600;BME280;40500;51.084;16.958;2023-04-07T09:53:47;100462.27;;;4.15;100.00
54600;BME280;40500;51.084;16.958;2023-04-07T09:56:18;100459.88;;;4.19;100.00
54600;BME280;40500;51.084;16.958;2023-04-07T09:58:49;100460.02;;;4.16;100.00
54600;BME280;40500;51.084;16.958;2023-04-07T10:01:18;100459.38;;;4.20;100.00
54600;BME280;40500;51.084;16.958;2023-04-07T10:03:46;100457.98;;;4.21;100.00
54600;BME280;40500;51.084;16.958;2023-04-07T10:06:15;100456.80;;;4.23;100.00
54600;BME280;40500;51.084;16.958;2023-04-07T10:08:44;100454.95;;;4.29;100.00
54600;BME280;40500;51.084;16.958;2023-04-07T10:11:12;100457.27;;;4.33;100.00
54600;BME280;40500;51.084;16.958;2023-04-07T10:13:40;100453.64;;;4.35;100.00
54600;BME280;40500;51.084;16.958;2023-04-07T10:16:08;100450.20;;;4.39;100.00
54600;BME280;40500;51.084;16.958;2023-04-07T10:18:36;100449.20;;;4.44;100.00
54600;BME280;40500;51.084;16.958;2023-04-07T10:21:06;100446.63;;;4.46;100.00
54600;BME280;40500;51.084;16.958;2023-04-07T10:23:46;100443.69;;;4.47;100.00
54600;BME280;40500;51.084;16.958;2023-04-07T10:26:18;100443.02;;;4.48;100.00
54600;BME280;40500;51.084;16.958;2023-04-07T10:28:52;100445.41;;;4.45;100.00
54600;BME280;40500;51.084;16.958;2023-04-07T10:31:22;100444.90;;;4.45;100.00
54600;BME280;40500;51.084;16.958;2023-04-07T10:33:52;100441.59;;;4.44;100.00
54600;BME280;40500;51.084;16.958;2023-04-07T10:36:21;100442.82;;;4.46;100.00
54600;BME280;40500;51.084;16.958;2023-04-07T10:39:19;100441.64;;;4.48;100.00
54600;BME280;40500;51.084;16.958;2023-04-07T10:41:47;100441.13;;;4.49;100.00
54600;BME280;40500;51.084;16.958;2023-04-07T10:44:44;100444.94;;;4.49;100.00
54600;BME280;40500;51.084;16.958;2023-04-07T10:47:13;100445.62;;;4.48;100.00
54600;BME280;40500;51.084;16.958;2023-04-07T10:50:16;100446.15;;;4.49;100.00
54600;BME280;40500;51.084;16.958;2023-04-07T10:52:46;100448.53;;;4.45;100.00
54600;BME280;40500;51.084;16.958;2023-04-07T10:55:34;100450.08;;;4.43;100.00
54600;BME280;40500;51.084;16.958;2023-04-07T10:58:16;100451.36;;;4.33;100.00
54600;BME280;40500;51.084;16.958;2023-04-07T11:01:16;100451.27;;;4.25;100.00
54600;BME280;40500;51.084;16.958;2023-04-07T11:03:59;100449.49;;;4.20;100.00
54600;BME280;40500;51.084;16.958;2023-04-07T11:06:27;100456.77;;;4.19;100.00
54600;BME280;40500;51.084;16.958;2023-04-07T11:08:55;100457.64;;;4.20;100.00
54600;BME280;40500;51.084;16.958;2023-04-07T11:11:37;100455.64;;;4.27;100.00
54600;BME280;40500;51.084;16.958;2023-04-07T11:14:05;100457.27;;;4.35;100.00
54600;BME280;40500;51.084;16.958;2023-04-07T11:16:39;100456.42;;;4.37;100.00
54600;BME280;40500;51.084;16.958;2023-04-07T11:19:07;100456.28;;;4.40;100.00
54600;BME280;40500;51.084;16.958;2023-04-07T11:21:34;100456.52;;;4.44;100.00
54600;BME280;40500;51.084;16.958;2023-04-07T11:24:03;100453.73;;;4.47;100.00
54600;BME280;40500;51.084;16.958;2023-04-07T11:26:36;100452.39;;;4.49;100.00
54600;BME280;40500;51.084;16.958;2023-04-07T11:29:05;100449.16;;;4.55;100.00
54600;BME280;40500;51.084;16.958;2023-04-07T11:31:33;100449.15;;;4.55;100.00
54600;BME280;40500;51.084;16.958;2023-04-07T11:34:02;100453.63;;;4.50;100.00
54600;BME280;40500;51.084;16.958;2023-04-07T11:36:32;100455.34;;;4.49;100.00
54600;BME280;40500;51.084;16.958;2023-04-07T11:39:00;100452.94;;;4.51;100.00
54600;BME280;40500;51.084;16.958;2023-04-07T11:41:30;100452.77;;;4.53;100.00
54600;BME280;40500;51.084;16.958;2023-04-07T11:44:06;100449.35;;;4.57;100.00
54600;BME280;40500;51.084;16.958;2023-04-07T11:46:35;100443.67;;;4.63;100.00
54600;BME280;40500;51.084;16.958;2023-04-07T11:49:10;100447.46;;;4.60;100.00
54600;BME280;40500;51.084;16.958;2023-04-07T11:51:39;100446.05;;;4.56;100.00
54600;BME280;40500;51.084;16.958;2023-04-07T11:54:07;100445.52;;;4.55;100.00
54600;BME280;40500;51.084;16.958;2023-04-07T11:56:44;100447.59;;;4.55;100.00
54600;BME280;40500;51.084;16.958;2023-04-07T11:59:22;100448.27;;;4.54;100.00
54600;BME280;40500;51.084;16.958;2023-04-07T12:01:51;100448.47;;;4.55;100.00
54600;BME280;40500;51.084;16.958;2023-04-07T12:04:23;100441.05;;;4.59;100.00
54600;BME280;40500;51.084;16.958;2023-04-07T12:06:51;100440.23;;;4.66;100.00
54600;BME280;40500;51.084;16.958;2023-04-07T12:09:27;100442.89;;;4.72;100.00
54600;BME280;40500;51.084;16.958;2023-04-07T12:11:55;100435.77;;;4.71;100.00
54600;BME280;40500;51.084;16.958;2023-04-07T12:14:24;100434.88;;;4.69;100.00
54600;BME280;40500;51.084;16.958;2023-04-07T12:16:52;100434.34;;;4.67;100.00
54600;BME280;40500;51.084;16.958;2023-04-07T12:19:22;100434.19;;;4.69;100.00
54600;BME280;40500;51.084;16.958;2023-04-07T12:21:50;100431.79;;;4.72;100.00
54600;BME280;40500;51.084;16.958;2023-04-07T12:24:18;100431.50;;;4.79;100.00
54600;BME280;40500;51.084;16.958;2023-04-07T12:26:45;100430.84;;;4.86;100.00
54600;BME280;40500;51.084;16.958;2023-04-07T12:29:15;100432.27;;;4.90;100.00
54600;BME280;40500;51.084;16.958;2023-04-07T12:31:43;100432.10;;;4.91;100.00
54600;BME280;40500;51.084;16.958;2023-04-07T12:34:11;100433.48;;;4.89;100.00
54600;BME280;40500;51.084;16.958;2023-04-07T12:36:39;100429.80;;;4.85;100.00
54600;BME280;40500;51.084;16.958;2023-04-07T12:39:06;100429.60;;;4.81;100.00
54600;BME280;40500;51.084;16.958;2023-04-07T12:41:34;100428.91;;;4.81;100.00
54600;BME280;40500;51.084;16.958;2023-04-07T12:44:04;100422.47;;;4.79;100.00
54600;BME280;40500;51.084;16.958;2023-04-07T12:46:32;100421.27;;;4.80;100.00
54600;BME280;40500;51.084;16.958;2023-04-07T12:49:00;100424.06;;;4.83;100.00
54600;BME280;40500;51.084;16.958;2023-04-07T12:51:28;100423.55;;;4.84;100.00
54600;BME280;40500;51.084;16.958;2023-04-07T12:53:55;100424.77;;;4.84;100.00
54600;BME280;40500;51.084;16.958;2023-04-07T12:56:23;100420.39;;;4.80;100.00